Battle Lake, MN

2:38 PM CDT on April 21, 2015 (GMT -0500)
Stalker Lake | | Change Station
CLOSE
Current Station
Personal Weather Station
Location: Battle Lake, MN
Elevation: 1299 ft
Nearby Weather Stations
Active Advisory: Wind Advisory

Elev 1299 ft 46.19 °N, 95.81 °W | Updated 6 minutes ago

Overcast
Overcast
33.6 °F
Feels Like 24 °F
N
14.5
Wind Variable Wind from WNW

Today
High -- | Low -- °F
--% Chance of Precip.
Yesterday
High -- | Low -- °F
Precip. -- in
6:25 AM 8:18 PM
Waxing Crescent, 12% visible
Pressure 29.78 in
Visibility 10.0 miles
Clouds Mostly Cloudy 2400 ft
Overcast 2800 ft
Windchill 24 °F
Dew Point 28 °F
Humidity 79%
Rainfall 0.18 in
Snow Depth Not available.
UV 2 out of 12
Pollen 9.00 out of 12
Air Quality Not available.
Flu Activity Local Activity
METAR KFFM 211934Z AUTO 33023G32KT 10SM BKN024 OVC028 01/M04 A2978 RMK AO2

More Conditions Fewer Conditions

Pressure 29.78 in
Visibility 10.0 miles
Clouds Mostly Cloudy 2400 ft
Overcast 2800 ft
Windchill 24 °F
Dew Point 28 °F
Humidity 79%
Rainfall 0.18 in
Snow Depth Not available.
UV 2 out of 12
Pollen 9.00 out of 12
Air Quality Not available.
Flu Activity Local Activity
METAR KFFM 211934Z AUTO 33023G32KT 10SM BKN024 OVC028 01/M04 A2978 RMK AO2

More Conditions Fewer Conditions

10-Day Weather Forecast

Almanac

Astronomy

Apr. 21, 2015 Rise Set
Actual Time
Civil Twilight
Nautical Twilight
Astronomical Twilight
Moon
Length of Visible Light
Length of Day
Tomorrow will be .
, % of the Moon is Illuminated

Today's Extremes

State Highs State Lows

Community

WunderPhotos

Upload Photos

1,815,514 photos uploaded!

WunderBlogs® & News

Nearby

Air Quality

  Air Quality AQ Index Pollutant
Not available.

Snow Depth

Station Depth Elevation

Earthquake Activity

City Distance Mag. Time & Date
Minimum magnitude displayed is 2.5.

Coastal Water Temperatures

Place Temperature

Stations

Nearby Weather Stations

Station Location Temp. Windchill Dew Point Humidity Wind Precip. Elev Updated Type
                   
Wind Advisory
Statement as of 11:17 AM CDT on April 21, 2015

... Wind Advisory in effect until 7 PM CDT this evening...

The National Weather Service in Grand Forks has issued a Wind
Advisory... which is in effect until 7 PM CDT this evening.

* Timing... until 7 PM CDT

* winds... 25 to 35 mph with gusts to 45 mph

* impacts... waves of 4 to 6 feet may be generated in the Devils
Lake basin and result in roadbed erosion in susceptible areas.

Precautionary/preparedness actions...

A Wind Advisory means that sustained winds of 30 mph or frequent
gusts to 45 mph are expected. Winds this strong can make driving
difficult... especially for high profile vehicles. Use extra
caution.